Flight Track Log - Related Links

Times and Time Zones

All times are in EDT time to prevent confusion due to time zone crossing. See the EGF2785 flight status page for this flight to view local times or setup timezone preferences in your user account.

Time Position Orientation Groundspeed Altitude Reporting Facility
EDT Latitude Longitude Course Direction KTS MPH feet Rate Location/Type
Tue 06:27:27 PM 42.0000 -87.8333 66° East 196 226 3,200  Level Chicago TRACON
Tue 06:27:58 PM 42.0033 -87.7992 83° East 202 232 3,700 1,226 Climbing Chicago Center
Tue 06:29:00 PM 42.0856 -87.5616 59° Northeast  Level FlightAware Approximate
Tue 06:29:00 PM 42.0064 -87.7042 87° East 227 261 5,100  Level Chicago Center
Tue 06:30:00 PM 42.1348 -87.4509 59° Northeast  Level FlightAware Approximate
Tue 06:30:02 PM 42.0372 -87.6094 66° East 272 313 7,400  Level Chicago Center
Tue 06:31:00 PM 42.1772 -87.3352 66° East  Level FlightAware Approximate
Tue 06:31:04 PM 42.0875 -87.5000 58° Northeast 287 330 10,100  Level Chicago Center
Tue 06:32:00 PM 42.2102 -87.2362 66° East  Level FlightAware Approximate
Tue 06:32:07 PM 42.1294 -87.4044 59° Northeast 298 343 11,900  Level Chicago Center
Tue 06:33:09 PM 42.1778 -87.2961 59° Northeast 337 388 12,400 677 Climbing Chicago Center
Tue 06:34:11 PM 42.2300 -87.1769 59° Northeast 368 423 13,300 1,065 Climbing Chicago Center
Tue 06:35:13 PM 42.2803 -87.0536 61° Northeast 376 433 14,600 823 Climbing Chicago Center
Tue 06:36:15 PM 42.3319 -86.9086 64° Northeast 396 456 15,000 194 Climbing Chicago Center
Tue 06:37:17 PM 42.3856 -86.7778 61° Northeast 399 459 15,000  Level Chicago Center
Tue 06:38:19 PM 42.4400 -86.6444 61° Northeast 406 467 15,000 -242 Level Chicago Center
Tue 06:39:21 PM 42.5028 -86.4875 61° Northeast 399 459 14,500 -774 Descending Chicago Center
Tue 06:40:23 PM 42.5550 -86.3564 62° Northeast 396 456 13,400 -1,355 Descending Chicago Center
Tue 06:41:25 PM 42.6050 -86.2311 61° Northeast 387 445 11,700 -1,440 Descending Chicago Center
Tue 06:42:28 PM 42.6500 -86.1164 62° Northeast 361 415 10,400 -1,344 Descending Chicago Center
Tue 06:43:30 PM 42.6931 -86.0242 58° Northeast 306 352 8,900 -1,645 Descending Chicago Center
Tue 06:44:32 PM 42.7356 -85.9356 57° Northeast 287 330 7,000 -1,790 Descending Chicago Center
Tue 06:45:34 PM 42.7850 -85.8364 56° Northeast 272 313 5,200 -1,645 Descending Chicago Center
Tue 06:46:36 PM 42.8206 -85.7575 58° Northeast 254 292 3,600 -1,258 Descending Chicago Center
Tue 06:47:38 PM 42.8525 -85.6825 60° Northeast 242 278 2,600 -823 Descending Chicago Center
Tue 06:48:40 PM 42.8675 -85.6208 72° East 197 227 1,900 -677 Descending Chicago Center

Login

Don't have an account? Register now (free) for customized features, flight alerts, and more!